sensor_id;sensor_type;location;lat;lon;timestamp;pressure;altitude;pressure_sealevel;temperature;humidity
71903;BME280;59778;50.310;18.780;2023-04-19T00:05:20;98998.94;;;10.65;100.00
71903;BME280;59778;50.310;18.780;2023-04-19T00:20:44;98979.19;;;10.56;100.00
71903;BME280;59778;50.310;18.780;2023-04-19T00:36:05;98964.31;;;10.52;100.00
71903;BME280;59778;50.310;18.780;2023-04-19T00:51:27;98952.69;;;10.44;100.00
71903;BME280;59778;50.310;18.780;2023-04-19T01:06:49;98931.94;;;10.36;98.79
71903;BME280;59778;50.310;18.780;2023-04-19T01:22:20;98915.97;;;10.26;97.91
71903;BME280;59778;50.310;18.780;2023-04-19T01:37:42;98900.50;;;10.12;97.84
71903;BME280;59778;50.310;18.780;2023-04-19T01:53:04;98885.53;;;10.16;97.09
71903;BME280;59778;50.310;18.780;2023-04-19T02:08:25;98878.16;;;10.10;96.28
71903;BME280;59778;50.310;18.780;2023-04-19T02:23:47;98882.66;;;10.03;99.30
71903;BME280;59778;50.310;18.780;2023-04-19T02:39:08;98867.28;;;9.95;99.90
71903;BME280;59778;50.310;18.780;2023-04-19T02:54:30;98840.84;;;9.54;100.00
71903;BME280;59778;50.310;18.780;2023-04-19T03:09:53;98817.22;;;9.48;100.00
71903;BME280;59778;50.310;18.780;2023-04-19T03:25:14;98788.22;;;9.33;100.00
71903;BME280;59778;50.310;18.780;2023-04-19T03:40:36;98779.09;;;9.20;100.00
71903;BME280;59778;50.310;18.780;2023-04-19T03:55:58;98754.50;;;9.21;100.00
71903;BME280;59778;50.310;18.780;2023-04-19T04:11:20;98761.31;;;9.17;100.00
71903;BME280;59778;50.310;18.780;2023-04-19T04:26:41;98777.56;;;9.03;100.00
71903;BME280;59778;50.310;18.780;2023-04-19T04:42:02;98779.13;;;8.97;100.00
71903;BME280;59778;50.310;18.780;2023-04-19T04:57:25;98787.84;;;8.92;100.00
71903;BME280;59778;50.310;18.780;2023-04-19T05:12:47;98766.63;;;8.96;100.00
71903;BME280;59778;50.310;18.780;2023-04-19T05:28:08;98770.91;;;9.05;100.00
71903;BME280;59778;50.310;18.780;2023-04-19T05:43:29;98774.56;;;8.97;100.00
71903;BME280;59778;50.310;18.780;2023-04-19T05:58:51;98765.47;;;8.61;100.00
71903;BME280;59778;50.310;18.780;2023-04-19T06:14:12;98767.56;;;8.51;97.46
71903;BME280;59778;50.310;18.780;2023-04-19T06:29:34;98775.53;;;8.67;95.00
71903;BME280;59778;50.310;18.780;2023-04-19T06:44:55;98777.75;;;8.49;92.30
71903;BME280;59778;50.310;18.780;2023-04-19T07:00:19;98779.00;;;8.38;93.18
71903;BME280;59778;50.310;18.780;2023-04-19T07:15:41;98794.31;;;8.46;94.65
71903;BME280;59778;50.310;18.780;2023-04-19T07:31:02;98798.63;;;8.78;92.93
71903;BME280;59778;50.310;18.780;2023-04-19T07:46:23;98802.38;;;8.77;90.38
71903;BME280;59778;50.310;18.780;2023-04-19T08:01:45;98808.28;;;8.95;88.22
71903;BME280;59778;50.310;18.780;2023-04-19T08:17:06;98799.53;;;9.08;86.81
71903;BME280;59778;50.310;18.780;2023-04-19T08:32:28;98802.63;;;7.52;100.00
71903;BME280;59778;50.310;18.780;2023-04-19T08:47:49;98814.78;;;6.77;100.00
71903;BME280;59778;50.310;18.780;2023-04-19T09:03:11;98812.56;;;7.04;100.00
71903;BME280;59778;50.310;18.780;2023-04-19T09:18:32;98805.31;;;7.05;100.00
71903;BME280;59778;50.310;18.780;2023-04-19T09:34:14;98807.81;;;7.23;100.00
71903;BME280;59778;50.310;18.780;2023-04-19T09:49:36;98810.19;;;7.09;100.00
71903;BME280;59778;50.310;18.780;2023-04-19T10:04:57;98809.69;;;7.14;100.00
71903;BME280;59778;50.310;18.780;2023-04-19T10:20:23;98802.28;;;7.00;100.00
71903;BME280;59778;50.310;18.780;2023-04-19T10:35:47;98800.59;;;7.07;100.00
71903;BME280;59778;50.310;18.780;2023-04-19T10:51:13;98824.03;;;7.15;100.00
71903;BME280;59778;50.310;18.780;2023-04-19T11:22:15;98830.13;;;6.84;100.00
71903;BME280;59778;50.310;18.780;2023-04-19T11:37:37;98839.28;;;6.83;100.00
71903;BME280;59778;50.310;18.780;2023-04-19T11:53:09;98832.19;;;6.82;100.00
71903;BME280;59778;50.310;18.780;2023-04-19T12:08:38;98840.63;;;6.71;100.00
71903;BME280;59778;50.310;18.780;2023-04-19T12:24:02;98844.59;;;7.16;100.00
71903;BME280;59778;50.310;18.780;2023-04-19T12:39:23;98837.22;;;6.85;100.00
71903;BME280;59778;50.310;18.780;2023-04-19T12:54:46;98841.97;;;6.43;100.00
71903;BME280;59778;50.310;18.780;2023-04-19T13:10:09;98849.06;;;6.44;100.00
71903;BME280;59778;50.310;18.780;2023-04-19T13:25:30;98847.88;;;6.54;100.00
71903;BME280;59778;50.310;18.780;2023-04-19T13:40:53;98844.16;;;6.39;100.00
71903;BME280;59778;50.310;18.780;2023-04-19T13:56:14;98847.16;;;6.36;100.00
71903;BME280;59778;50.310;18.780;2023-04-19T14:11:36;98846.63;;;6.16;100.00
71903;BME280;59778;50.310;18.780;2023-04-19T14:26:58;98843.28;;;6.31;100.00
71903;BME280;59778;50.310;18.780;2023-04-19T14:42:20;98849.03;;;6.28;100.00
71903;BME280;59778;50.310;18.780;2023-04-19T14:57:41;98859.31;;;6.24;100.00
71903;BME280;59778;50.310;18.780;2023-04-19T15:13:02;98845.50;;;6.35;100.00
71903;BME280;59778;50.310;18.780;2023-04-19T15:28:24;98858.47;;;6.48;100.00
71903;BME280;59778;50.310;18.780;2023-04-19T15:43:45;98859.13;;;6.34;100.00
71903;BME280;59778;50.310;18.780;2023-04-19T15:59:06;98881.09;;;6.47;100.00
71903;BME280;59778;50.310;18.780;2023-04-19T16:14:28;98888.00;;;6.57;100.00
71903;BME280;59778;50.310;18.780;2023-04-19T16:29:49;98890.19;;;6.62;100.00
71903;BME280;59778;50.310;18.780;2023-04-19T16:45:10;98895.59;;;6.70;100.00
71903;BME280;59778;50.310;18.780;2023-04-19T17:00:32;98905.56;;;6.86;100.00
71903;BME280;59778;50.310;18.780;2023-04-19T17:15:53;98916.50;;;6.84;100.00
71903;BME280;59778;50.310;18.780;2023-04-19T17:31:14;98913.81;;;6.68;100.00
71903;BME280;59778;50.310;18.780;2023-04-19T17:46:36;98926.16;;;6.79;100.00
71903;BME280;59778;50.310;18.780;2023-04-19T18:01:58;98948.75;;;6.94;100.00
71903;BME280;59778;50.310;18.780;2023-04-19T18:17:20;98950.28;;;7.04;100.00
71903;BME280;59778;50.310;18.780;2023-04-19T18:32:42;98962.94;;;7.04;100.00
71903;BME280;59778;50.310;18.780;2023-04-19T18:48:04;98978.78;;;7.23;100.00
71903;BME280;59778;50.310;18.780;2023-04-19T19:03:26;98975.59;;;7.11;100.00
71903;BME280;59778;50.310;18.780;2023-04-19T19:18:47;98968.50;;;7.02;100.00
71903;BME280;59778;50.310;18.780;2023-04-19T19:34:09;98982.03;;;7.10;100.00
71903;BME280;59778;50.310;18.780;2023-04-19T19:49:30;98997.53;;;7.00;100.00
71903;BME280;59778;50.310;18.780;2023-04-19T20:04:51;98994.16;;;6.98;100.00
71903;BME280;59778;50.310;18.780;2023-04-19T20:20:12;98980.31;;;7.01;100.00
71903;BME280;59778;50.310;18.780;2023-04-19T20:35:34;98976.59;;;6.94;100.00
71903;BME280;59778;50.310;18.780;2023-04-19T20:50:56;98980.16;;;7.03;100.00
71903;BME280;59778;50.310;18.780;2023-04-19T21:06:17;98972.72;;;7.13;100.00
71903;BME280;59778;50.310;18.780;2023-04-19T21:21:39;98970.19;;;7.11;100.00
71903;BME280;59778;50.310;18.780;2023-04-19T21:37:00;98969.53;;;7.09;100.00
71903;BME280;59778;50.310;18.780;2023-04-19T21:52:21;98974.59;;;7.21;100.00
71903;BME280;59778;50.310;18.780;2023-04-19T22:07:43;98986.41;;;7.20;100.00
71903;BME280;59778;50.310;18.780;2023-04-19T22:23:04;98997.03;;;7.29;100.00
71903;BME280;59778;50.310;18.780;2023-04-19T22:38:26;99001.94;;;7.26;100.00
71903;BME280;59778;50.310;18.780;2023-04-19T22:53:47;98994.69;;;7.34;100.00
71903;BME280;59778;50.310;18.780;2023-04-19T23:09:09;98992.16;;;7.33;100.00
71903;BME280;59778;50.310;18.780;2023-04-19T23:24:34;98990.94;;;7.27;100.00
71903;BME280;59778;50.310;18.780;2023-04-19T23:39:58;98971.03;;;7.20;100.00
71903;BME280;59778;50.310;18.780;2023-04-19T23:55:19;98966.97;;;7.24;100.00
